createdAt,value
2022-07-29T17:27:42.811Z,2.60
2022-07-29T17:32:47.331Z,2.50
2022-07-29T17:37:50.654Z,2.70
2022-07-29T17:42:54.086Z,2.20
2022-07-29T17:47:57.508Z,2.70
2022-07-29T17:53:00.787Z,3.00
2022-07-29T17:58:04.159Z,2.70
2022-07-29T18:03:07.703Z,2.60
2022-07-29T18:08:11.287Z,3.00
2022-07-29T18:13:24.229Z,2.90
2022-07-29T18:18:27.631Z,3.40
2022-07-29T18:23:38.918Z,2.90
2022-07-29T18:28:48.218Z,3.20
2022-07-29T18:33:56.154Z,2.90
2022-07-29T18:39:04.180Z,3.80
2022-07-29T18:44:08.391Z,3.20
2022-07-29T18:49:13.027Z,3.20
2022-07-29T18:54:17.699Z,2.80
2022-07-29T18:59:22.417Z,4.10
2022-07-29T19:04:25.771Z,3.90
2022-07-29T19:09:30.000Z,4.20
2022-07-29T19:14:33.204Z,3.70
2022-07-29T19:19:36.681Z,3.10
2022-07-29T19:24:41.287Z,3.30
2022-07-29T19:29:44.638Z,3.70
2022-07-29T19:35:07.800Z,3.70
2022-07-29T19:40:13.088Z,3.20
2022-07-29T19:45:26.269Z,3.80
2022-07-29T19:50:33.293Z,3.30
2022-07-29T19:55:38.030Z,4.40
2022-07-29T20:00:42.223Z,4.00
2022-07-29T20:05:48.066Z,4.20
2022-07-29T20:10:52.130Z,4.50
2022-07-29T20:15:55.576Z,4.20
2022-07-29T20:21:00.659Z,5.50
2022-07-29T20:26:09.499Z,5.70
2022-07-29T20:31:15.893Z,5.60
2022-07-29T20:36:19.322Z,4.60
2022-07-29T20:41:23.257Z,5.00
2022-07-29T20:46:36.059Z,5.60
2022-07-29T20:51:43.710Z,4.90
2022-07-29T20:57:11.748Z,5.00
2022-07-29T21:02:37.837Z,5.30
2022-07-29T21:07:42.375Z,4.70
2022-07-29T21:12:46.729Z,5.20
2022-07-29T21:17:52.840Z,5.30
2022-07-29T21:22:56.381Z,4.20
2022-07-29T21:28:32.842Z,5.10
2022-07-29T21:33:57.459Z,5.20
2022-07-29T21:39:08.278Z,5.00
2022-07-29T21:44:11.702Z,5.80
2022-07-29T21:49:15.224Z,5.10
2022-07-29T21:54:19.268Z,5.50
2022-07-29T21:59:26.366Z,4.90
2022-07-29T22:04:30.425Z,4.90
2022-07-29T22:09:35.150Z,4.40
2022-07-29T22:14:47.022Z,4.70
2022-07-29T22:20:10.178Z,5.10
2022-07-29T22:25:13.535Z,4.20
2022-07-29T22:30:17.218Z,3.40
2022-07-29T22:35:21.093Z,3.60
2022-07-29T22:40:41.051Z,3.70
2022-07-29T22:45:52.928Z,2.80
2022-07-29T22:51:02.961Z,2.60
2022-07-29T22:56:07.962Z,2.10
2022-07-29T23:01:38.698Z,2.60
2022-07-29T23:06:57.089Z,2.20
2022-07-29T23:12:01.880Z,2.70
2022-07-29T23:17:06.233Z,2.10
2022-07-29T23:22:09.579Z,2.40
2022-07-29T23:27:12.874Z,2.50
2022-07-29T23:32:16.055Z,2.20
2022-07-29T23:37:19.308Z,2.60
2022-07-29T23:42:22.798Z,2.00
2022-07-29T23:47:26.310Z,2.10
2022-07-29T23:52:29.578Z,2.20
2022-07-29T23:57:32.899Z,1.90
